»·PEaware :: UAL2343 KMFR-KSFO

UAL2343 :: KMFR-KSFO

FLIGHT INFORMATION

Flight Status: Arrived
Operator:
United Airlines
More flights by this operator :: More flights under this callsign
Pilot: Juergen W. (20028)
Aircraft: AIRBUS A319
(A319)
More flights by this aircraft type
Origin: KMFR Rogue Valley Intl-Medford
United States
Destination: KSFO San Francisco Intl
United States
More flights between these airports :: More routes between these airports
Route: +JKSN1 OED MLBEC BDEGA2
File this flight plan on PilotEdge
Remarks:
Altitude:
(Current/Filed)
370ft
Speed:
(Current/Filed)
459kts
Departed: 12-Aug-18 09:55 AM
Arrived: 12-Aug-18 10:59 AM
Distance/Time
Traveled:
286nm/1:04
Distance/Time
To Go:
Arrived

Flight Plot

Page will automatically refresh every two minutes.

Flight plan parsing failed; only flown route is shown


Map Options




Map Legend


Flown Route
Filed Route
Departure Airport
Arrival Airport
Navaid (VOR, NDB)
Fix

Horizontal Profiles

Position Reports

Time Latitude Longitude Heading Altitude Ground
Speed
12-Aug-18 09:25 42.371164 -122.876218 202 1349ft 0kts
12-Aug-18 09:26 42.371164 -122.876218 202 1349ft 0kts
12-Aug-18 09:27 42.371164 -122.876218 202 1349ft 0kts
12-Aug-18 09:28 42.371164 -122.876218 202 1349ft 0kts
12-Aug-18 09:29 42.371164 -122.876218 202 1349ft 0kts
12-Aug-18 09:30 42.371164 -122.876218 202 1349ft 0kts
12-Aug-18 09:31 42.371164 -122.876218 202 1349ft 0kts
12-Aug-18 09:32 42.371164 -122.876218 202 1349ft 0kts
12-Aug-18 09:33 42.371164 -122.876218 202 1349ft 0kts
12-Aug-18 09:34 42.371164 -122.876218 202 1349ft 0kts
12-Aug-18 09:35 42.371164 -122.876218 202 1349ft 0kts
12-Aug-18 09:36 42.371164 -122.876218 202 1349ft 0kts
12-Aug-18 09:37 42.371164 -122.876218 202 1349ft 0kts
12-Aug-18 09:38 42.371164 -122.876218 202 1349ft 0kts
12-Aug-18 09:39 42.371164 -122.876218 202 1349ft 0kts
12-Aug-18 09:40 42.371164 -122.876218 202 1349ft 0kts
12-Aug-18 09:41 42.371164 -122.876218 202 1349ft 0kts
12-Aug-18 09:42 42.371232 -122.876180 201 1349ft 2kts
12-Aug-18 09:43 42.371854 -122.875996 164 1349ft 2kts
12-Aug-18 09:44 42.372035 -122.876233 113 1349ft 3kts
12-Aug-18 09:45 42.372034 -122.876232 113 1349ft 0kts
12-Aug-18 09:46 42.372034 -122.876231 113 1349ft 0kts
12-Aug-18 09:47 42.372034 -122.876229 113 1349ft 0kts
12-Aug-18 09:48 42.372033 -122.876228 113 1349ft 0kts
12-Aug-18 09:49 42.372033 -122.876226 113 1349ft 0kts
12-Aug-18 09:50 42.372215 -122.875422 342 1349ft 7kts
12-Aug-18 09:51 42.375000 -122.875865 355 1349ft 8kts
12-Aug-18 09:52 42.378477 -122.876722 338 1349ft 14kts
12-Aug-18 09:53 42.382680 -122.878904 338 1349ft 15kts
12-Aug-18 09:54 42.385571 -122.879751 73 1349ft 4kts
12-Aug-18 09:55 42.385584 -122.878861 156 1349ft 0kts
12-Aug-18 09:56 42.380774 -122.876330 158 1349ft 102kts
12-Aug-18 09:57 42.339159 -122.858965 181 3141ft 171kts
12-Aug-18 09:58 42.297851 -122.898354 273 4972ft 227kts
12-Aug-18 09:59 42.343716 -122.938212 5 7870ft 234kts
12-Aug-18 10:00 42.410702 -122.925642 7 10607ft 247kts
12-Aug-18 10:01 42.479041 -122.912982 4 12863ft 255kts
12-Aug-18 10:02 42.550505 -122.931403 344 15169ft 272kts
12-Aug-18 10:03 42.624353 -122.958471 317 17563ft 275kts
12-Aug-18 10:04 42.631167 -123.047469 227 19709ft 265kts
12-Aug-18 10:05 42.560361 -123.057081 139 21616ft 304kts
12-Aug-18 10:06 42.526521 -122.970703 125 23158ft 316kts
12-Aug-18 10:07 42.446123 -122.908554 190 24865ft 302kts
12-Aug-18 10:08 42.371219 -122.915150 184 25295ft 347kts
12-Aug-18 10:09 42.249295 -122.915965 184 25913ft 401kts
12-Aug-18 10:10 42.152658 -122.917326 183 26309ft 434kts
12-Aug-18 10:11 42.029344 -122.918882 183 27514ft 447kts
12-Aug-18 10:12 41.882559 -122.920834 183 28986ft 455kts
12-Aug-18 10:13 41.777813 -122.922220 183 30429ft 448kts
12-Aug-18 10:14 41.653706 -122.923894 184 31997ft 443kts
12-Aug-18 10:15 41.531020 -122.925460 184 33463ft 438kts
12-Aug-18 10:16 41.409714 -122.927103 184 34740ft 434kts
12-Aug-18 10:17 41.288956 -122.928719 184 35787ft 433kts
12-Aug-18 10:18 41.168609 -122.930274 184 36670ft 432kts
12-Aug-18 10:19 41.048529 -122.931818 184 37140ft 431kts
12-Aug-18 10:20 40.928059 -122.933361 184 37131ft 432kts
12-Aug-18 10:21 40.807919 -122.934904 184 37129ft 432kts
12-Aug-18 10:22 40.687771 -122.936397 184 37120ft 432kts
12-Aug-18 10:23 40.567456 -122.937982 184 37102ft 433kts
12-Aug-18 10:24 40.446949 -122.939446 184 37095ft 433kts
12-Aug-18 10:25 40.326273 -122.940997 184 37096ft 433kts
12-Aug-18 10:26 40.205705 -122.942561 184 37105ft 433kts
12-Aug-18 10:27 40.085112 -122.944086 184 37117ft 433kts
12-Aug-18 10:28 39.964214 -122.945567 184 37061ft 435kts
12-Aug-18 10:29 39.842524 -122.947090 184 36998ft 437kts
12-Aug-18 10:30 39.721014 -122.948609 184 37016ft 437kts
12-Aug-18 10:31 39.599514 -122.950096 184 37028ft 437kts
12-Aug-18 10:32 39.478019 -122.951587 184 37033ft 437kts
12-Aug-18 10:33 39.356169 -122.953113 184 37022ft 438kts
12-Aug-18 10:34 39.234308 -122.954592 184 37027ft 438kts
12-Aug-18 10:35 39.112394 -122.956098 184 37016ft 439kts
12-Aug-18 10:36 38.990584 -122.957552 184 36067ft 439kts
12-Aug-18 10:37 38.868010 -122.956451 175 34537ft 445kts
12-Aug-18 10:38 38.746627 -122.921477 169 32095ft 448kts
12-Aug-18 10:39 38.624757 -122.885589 170 29578ft 446kts
12-Aug-18 10:40 38.504299 -122.850016 169 26965ft 439kts
12-Aug-18 10:41 38.388426 -122.815953 169 25156ft 407kts
12-Aug-18 10:42 38.279407 -122.784090 169 22795ft 396kts
12-Aug-18 10:43 38.174177 -122.753300 169 20627ft 381kts
12-Aug-18 10:44 38.073046 -122.723948 169 18475ft 365kts
12-Aug-18 10:45 37.975922 -122.695770 168 16298ft 352kts
12-Aug-18 10:46 37.884615 -122.659395 144 14357ft 347kts
12-Aug-18 10:47 37.811733 -122.580191 141 12468ft 342kts
12-Aug-18 10:48 37.743370 -122.508195 142 11596ft 300kts
12-Aug-18 10:49 37.678955 -122.439768 141 9237ft 301kts
12-Aug-18 10:50 37.615673 -122.372518 141 7982ft 294kts
12-Aug-18 10:51 37.547755 -122.316150 153 8001ft 292kts
12-Aug-18 10:52 37.476784 -122.268446 153 7077ft 288kts
12-Aug-18 10:53 37.406614 -122.221101 145 5524ft 283kts
12-Aug-18 10:54 37.403746 -122.136802 35 4063ft 274kts
12-Aug-18 10:55 37.476049 -122.131784 335 3876ft 261kts
12-Aug-18 10:56 37.533837 -122.180613 299 2808ft 232kts
12-Aug-18 10:57 37.563493 -122.250151 297 1807ft 205kts
12-Aug-18 10:58 37.586972 -122.301896 302 1315ft 133kts
12-Aug-18 10:59 37.604053 -122.340107 297 310ft 117kts
12-Aug-18 11:00 37.617225 -122.371436 298 27ft 38kts
12-Aug-18 11:01 37.618949 -122.378029 267 27ft 9kts
12-Aug-18 11:02 37.619595 -122.381874 297 27ft 10kts
12-Aug-18 11:03 37.621055 -122.385364 297 27ft 10kts
12-Aug-18 11:04 37.622573 -122.388984 297 27ft 10kts
12-Aug-18 11:05 37.621244 -122.391729 207 27ft 10kts
12-Aug-18 11:06 37.619087 -122.390832 117 27ft 9kts
12-Aug-18 11:07 37.618132 -122.388629 139 27ft 3kts
12-Aug-18 11:08 37.617971 -122.388458 139 27ft 0kts
12-Aug-18 11:09 37.617971 -122.388458 139 27ft 0kts
12-Aug-18 11:10 37.617971 -122.388458 139 27ft 0kts
12-Aug-18 11:11 37.617971 -122.388458 139 27ft 0kts
12-Aug-18 11:12 37.617971 -122.388458 139 27ft 0kts
12-Aug-18 11:13 37.617971 -122.388458 139 27ft 0kts
12-Aug-18 11:14 37.617971 -122.388458 139 27ft 0kts
12-Aug-18 11:15 37.617971 -122.388458 139 27ft 0kts

Navigation Log

Ident Type
Flight plan parsing failed, navigation log unavailable